Time;durP1;ratioP1;P1;durP2;ratioP2;P2;SDS_P1;SDS_P2;PMS_P1;PMS_P2;Temp;Humidity;BMP_temperature;BMP_pressure;BME280_temperature;BME280_humidity;BME280_pressure;Samples;Min_cycle;Max_cycle;Signal;HPM_P1;HPM_P2
2022/10/16 00:02:00;;;;;;;4.13;2.75;;;16.60;99.90;;;;;;5077585;28;20032;-72
2022/10/16 00:04:25;;;;;;;3.20;2.50;;;16.60;99.90;;;;;;5088788;28;20436;-72
2022/10/16 00:06:51;;;;;;;3.92;2.85;;;16.70;99.90;;;;;;5081396;28;20551;-72
2022/10/16 00:09:16;;;;;;;3.90;2.95;;;16.70;99.90;;;;;;5073776;28;20051;-72
2022/10/16 00:11:42;;;;;;;4.88;2.80;;;16.70;99.90;;;;;;5073974;28;20028;-72
2022/10/16 00:14:11;;;;;;;5.03;3.20;;;16.70;99.90;;;;;;5074263;28;20111;-72
2022/10/16 00:16:37;;;;;;;3.80;2.80;;;16.80;99.90;;;;;;5075580;28;20067;-71
2022/10/16 00:19:03;;;;;;;4.57;2.42;;;16.80;99.90;;;;;;5073883;28;20071;-72
2022/10/16 00:21:30;;;;;;;3.55;2.50;;;16.80;99.90;;;;;;5073966;28;20079;-71
2022/10/16 00:24:10;;;;;;;4.82;2.60;;;16.80;99.90;;;;;;5072092;28;20033;-72
2022/10/16 00:26:37;;;;;;;3.80;2.60;;;16.80;99.90;;;;;;5073194;28;20036;-71
2022/10/16 00:29:04;;;;;;;3.35;2.33;;;16.90;99.90;;;;;;5071021;28;20024;-73
2022/10/16 00:31:30;;;;;;;3.30;2.45;;;16.90;99.90;;;;;;5073409;28;20036;-73
2022/10/16 00:33:55;;;;;;;4.25;2.50;;;16.90;99.90;;;;;;5070915;28;20033;-72
2022/10/16 00:36:23;;;;;;;3.10;2.58;;;16.90;99.90;;;;;;5054655;28;20044;-74
2022/10/16 00:38:54;;;;;;;3.65;2.90;;;16.90;99.90;;;;;;5072367;28;20025;-74
2022/10/16 00:41:21;;;;;;;5.22;2.60;;;17.00;99.90;;;;;;5072938;28;20069;-73
2022/10/16 00:44:02;;;;;;;3.70;2.50;;;17.00;99.90;;;;;;5071636;28;20029;-73
2022/10/16 00:46:36;;;;;;;3.53;2.40;;;17.00;99.90;;;;;;5072204;28;20016;-74
2022/10/16 00:49:07;;;;;;;3.38;2.70;;;17.00;99.90;;;;;;5061323;28;20028;-74
2022/10/16 00:51:53;;;;;;;3.97;2.72;;;17.10;99.90;;;;;;5071728;28;20040;-74
2022/10/16 00:54:28;;;;;;;5.60;3.03;;;17.10;99.90;;;;;;5074887;28;20029;-73
2022/10/16 00:56:54;;;;;;;3.13;2.25;;;17.10;99.90;;;;;;5071904;28;20032;-74
2022/10/16 00:59:26;;;;;;;2.63;2.03;;;17.10;99.90;;;;;;5075827;28;20043;-73
2022/10/16 01:01:52;;;;;;;3.47;2.25;;;17.10;99.90;;;;;;5063880;28;20377;-73
2022/10/16 01:04:18;;;;;;;3.60;2.10;;;17.10;99.90;;;;;;5074758;28;20093;-73
2022/10/16 01:07:09;;;;;;;3.10;2.55;;;17.10;99.90;;;;;;5080254;28;20037;-72
2022/10/16 01:10:06;;;;;;;2.63;2.10;;;17.20;99.90;;;;;;5083683;28;20086;-73
2022/10/16 01:12:49;;;;;;;3.00;1.92;;;17.10;99.90;;;;;;5074401;28;20036;-73
2022/10/16 01:15:41;;;;;;;2.97;2.17;;;17.10;99.90;;;;;;5084592;28;20028;-72
2022/10/16 01:18:16;;;;;;;6.25;2.22;;;17.10;99.90;;;;;;5063495;28;20101;-72
2022/10/16 01:20:45;;;;;;;;;;;17.10;99.90;;;;;;5078721;28;20029;-72
2022/10/16 01:23:24;;;;;;;3.20;2.00;;;17.10;99.90;;;;;;5058337;28;19915;-72
2022/10/16 01:26:15;;;;;;;3.20;2.25;;;17.10;99.90;;;;;;5078184;28;20025;-72
2022/10/16 01:28:56;;;;;;;3.58;2.20;;;17.10;99.90;;;;;;5071100;28;20020;-73
2022/10/16 01:31:26;;;;;;;3.40;2.78;;;17.10;99.90;;;;;;5069681;28;20029;-72
2022/10/16 01:34:02;;;;;;;5.70;2.25;;;17.10;99.90;;;;;;5071657;28;20099;-72
2022/10/16 01:36:36;;;;;;;2.33;1.88;;;17.10;99.90;;;;;;5070490;28;20159;-73
2022/10/16 01:39:03;;;;;;;2.60;2.15;;;17.10;99.90;;;;;;5056165;28;20025;-73
2022/10/16 01:41:44;;;;;;;2.90;2.20;;;17.10;99.90;;;;;;5071700;28;20384;-73
2022/10/16 01:44:22;;;;;;;2.50;1.77;;;17.10;99.90;;;;;;5057222;28;20103;-73
2022/10/16 01:46:51;;;;;;;4.13;2.08;;;17.10;99.90;;;;;;5062915;28;20122;-73
2022/10/16 01:49:20;;;;;;;3.22;1.90;;;17.00;99.90;;;;;;5074394;28;20023;-74
2022/10/16 01:51:48;;;;;;;3.20;2.17;;;17.00;99.90;;;;;;5074600;28;20082;-74
2022/10/16 01:54:16;;;;;;;2.38;1.70;;;17.10;99.90;;;;;;5074005;28;20479;-73
2022/10/16 01:56:43;;;;;;;9.02;2.17;;;17.10;99.90;;;;;;5085831;28;20061;-73
2022/10/16 01:59:19;;;;;;;2.63;1.83;;;17.00;99.90;;;;;;5078285;28;20028;-74
2022/10/16 02:01:50;;;;;;;3.58;1.77;;;17.00;99.90;;;;;;5067908;28;20439;-74
2022/10/16 02:04:24;;;;;;;2.90;1.98;;;17.00;99.90;;;;;;5082141;28;20118;-73
2022/10/16 02:06:51;;;;;;;3.37;1.80;;;17.00;99.90;;;;;;5076483;28;20434;-73
2022/10/16 02:09:17;;;;;;;3.35;1.73;;;17.00;99.90;;;;;;5075642;28;20048;-73
2022/10/16 02:11:44;;;;;;;2.42;1.92;;;17.00;99.90;;;;;;5072565;28;20436;-73
2022/10/16 02:14:09;;;;;;;3.03;2.20;;;17.00;99.90;;;;;;5070952;28;20040;-73
2022/10/16 02:16:44;;;;;;;2.30;1.70;;;17.00;99.90;;;;;;5070494;28;20355;-72
2022/10/16 02:19:10;;;;;;;2.25;1.70;;;17.10;99.90;;;;;;5069882;28;20762;-72
2022/10/16 02:21:56;;;;;;;5.18;2.58;;;17.10;99.90;;;;;;5091859;28;20495;-73
2022/10/16 02:24:30;;;;;;;4.90;1.98;;;17.10;99.90;;;;;;5084513;28;20040;-73
2022/10/16 02:27:09;;;;;;;;;;;17.10;99.90;;;;;;5077361;28;20476;-73
2022/10/16 02:29:40;;;;;;;3.55;2.10;;;17.10;99.90;;;;;;5075210;28;19915;-72
2022/10/16 02:32:08;;;;;;;3.75;2.40;;;17.10;99.90;;;;;;5080124;28;20485;-72
2022/10/16 02:34:35;;;;;;;5.47;2.30;;;17.20;99.90;;;;;;5069801;28;20032;-73
2022/10/16 02:37:04;;;;;;;3.22;2.15;;;17.10;99.90;;;;;;5070409;28;20425;-73
2022/10/16 02:39:32;;;;;;;2.80;2.05;;;17.20;99.90;;;;;;5072809;28;20032;-72
2022/10/16 02:41:59;;;;;;;5.25;2.17;;;17.20;99.90;;;;;;5084996;28;20033;-72
2022/10/16 02:44:24;;;;;;;2.40;1.73;;;17.20;99.90;;;;;;5071300;28;20784;-72
2022/10/16 02:46:50;;;;;;;3.42;2.03;;;17.20;99.90;;;;;;5076901;28;20074;-72
2022/10/16 02:49:16;;;;;;;2.15;1.65;;;17.20;99.90;;;;;;5074549;28;20024;-72
2022/10/16 02:51:41;;;;;;;3.25;1.60;;;17.20;99.90;;;;;;5079310;28;20055;-72
2022/10/16 02:54:07;;;;;;;2.67;2.05;;;17.30;99.90;;;;;;5080120;28;20069;-72
2022/10/16 02:56:33;;;;;;;2.50;1.83;;;17.30;99.90;;;;;;5079749;28;20040;-71
2022/10/16 02:58:58;;;;;;;2.50;1.70;;;17.30;99.90;;;;;;5069641;28;20024;-71
2022/10/16 03:01:24;;;;;;;3.33;1.80;;;17.30;99.90;;;;;;5072909;28;20107;-73
2022/10/16 03:03:50;;;;;;;1.90;1.58;;;17.30;99.90;;;;;;5097614;28;20016;-73
2022/10/16 03:06:16;;;;;;;1.70;1.42;;;17.30;99.90;;;;;;5088999;28;20024;-73
2022/10/16 03:08:41;;;;;;;2.60;1.77;;;17.30;99.90;;;;;;5076646;28;20028;-73
2022/10/16 03:11:07;;;;;;;2.20;1.58;;;17.30;99.90;;;;;;5070914;28;20032;-74
2022/10/16 03:13:32;;;;;;;2.53;1.77;;;17.30;99.90;;;;;;5069180;28;20028;-74
2022/10/16 03:15:58;;;;;;;2.60;1.73;;;17.30;99.90;;;;;;5074700;28;20032;-73
2022/10/16 03:18:25;;;;;;;2.53;1.92;;;17.30;99.90;;;;;;5073704;28;20438;-73
2022/10/16 03:20:50;;;;;;;1.98;1.77;;;17.30;99.90;;;;;;5082600;28;20031;-73
2022/10/16 03:23:17;;;;;;;2.53;1.83;;;17.20;99.90;;;;;;5087142;28;20032;-73
2022/10/16 03:25:43;;;;;;;2.95;1.65;;;17.30;99.90;;;;;;5081779;28;20078;-74
2022/10/16 03:28:09;;;;;;;3.00;1.80;;;17.20;99.90;;;;;;5089209;28;20020;-73
2022/10/16 03:30:35;;;;;;;2.25;1.63;;;17.20;99.90;;;;;;5076313;28;20028;-73
2022/10/16 03:33:01;;;;;;;2.20;1.60;;;17.20;99.90;;;;;;5070210;28;20509;-74
2022/10/16 03:35:27;;;;;;;2.05;1.55;;;17.20;99.90;;;;;;5075939;28;20202;-74
2022/10/16 03:37:53;;;;;;;2.28;1.70;;;17.20;99.90;;;;;;5074248;28;20032;-74
2022/10/16 03:40:19;;;;;;;3.13;1.75;;;17.20;99.90;;;;;;5080366;28;20031;-74
2022/10/16 03:42:44;;;;;;;1.90;1.60;;;17.20;99.90;;;;;;5094642;28;20024;-75
2022/10/16 03:45:11;;;;;;;2.53;1.60;;;17.10;99.90;;;;;;5082156;28;20422;-73
2022/10/16 03:47:37;;;;;;;3.22;1.90;;;17.10;99.90;;;;;;5089677;28;20372;-74
2022/10/16 03:50:03;;;;;;;2.45;1.60;;;17.10;99.90;;;;;;5078401;28;20032;-73
2022/10/16 03:52:29;;;;;;;6.05;2.10;;;17.10;99.90;;;;;;5089784;28;20058;-74
2022/10/16 03:54:55;;;;;;;2.03;1.50;;;17.10;99.90;;;;;;5077027;28;20063;-74
2022/10/16 03:57:21;;;;;;;2.80;1.70;;;17.00;99.90;;;;;;5092536;28;20253;-73
2022/10/16 03:59:47;;;;;;;3.33;1.70;;;17.00;99.90;;;;;;5069600;28;20028;-74
2022/10/16 04:02:13;;;;;;;3.03;2.00;;;17.00;99.90;;;;;;5065534;28;20086;-74
2022/10/16 04:04:38;;;;;;;2.63;1.83;;;17.00;99.90;;;;;;5081342;28;20051;-73
2022/10/16 04:07:04;;;;;;;2.00;1.63;;;17.00;99.90;;;;;;5088344;28;20056;-74
2022/10/16 04:09:30;;;;;;;2.42;1.98;;;17.00;99.90;;;;;;5073862;28;20021;-74
2022/10/16 04:11:56;;;;;;;2.53;1.70;;;17.00;99.90;;;;;;5074960;28;20029;-70
2022/10/16 04:14:21;;;;;;;2.90;1.98;;;16.90;99.90;;;;;;5075427;28;20403;-76
2022/10/16 04:16:47;;;;;;;2.30;1.77;;;16.90;99.90;;;;;;5072713;28;20120;-75
2022/10/16 04:19:13;;;;;;;2.53;1.50;;;16.90;99.90;;;;;;5073130;28;20733;-73
2022/10/16 04:21:39;;;;;;;2.90;1.70;;;16.90;99.90;;;;;;5088348;28;20127;-70
2022/10/16 04:24:05;;;;;;;3.10;1.80;;;16.90;99.90;;;;;;5076838;28;20379;-75
2022/10/16 04:26:31;;;;;;;2.40;1.80;;;16.90;99.90;;;;;;5072933;28;20058;-74
2022/10/16 04:28:56;;;;;;;2.50;1.80;;;16.90;99.90;;;;;;5069982;28;20040;-73
2022/10/16 04:31:22;;;;;;;2.30;1.88;;;16.80;99.90;;;;;;5070775;28;20024;-73
2022/10/16 04:33:49;;;;;;;2.20;1.70;;;16.80;99.90;;;;;;5074973;28;20045;-73
2022/10/16 04:36:14;;;;;;;2.00;1.52;;;16.80;99.90;;;;;;5087724;28;20024;-73
2022/10/16 04:38:40;;;;;;;2.15;1.80;;;16.80;99.90;;;;;;5074929;28;20386;-73
2022/10/16 04:41:07;;;;;;;2.17;1.73;;;16.80;99.90;;;;;;5072999;28;20054;-72
2022/10/16 04:43:33;;;;;;;2.90;1.80;;;16.80;99.90;;;;;;5075054;28;20028;-73
2022/10/16 04:45:59;;;;;;;2.60;1.75;;;16.80;99.90;;;;;;5070475;28;20036;-73
2022/10/16 04:48:25;;;;;;;2.05;1.70;;;16.70;99.90;;;;;;5074312;28;20032;-73
2022/10/16 04:50:50;;;;;;;3.35;2.08;;;16.70;99.90;;;;;;5072327;28;20047;-72
2022/10/16 04:53:16;;;;;;;2.42;1.90;;;16.70;99.90;;;;;;5072591;28;20082;-73
2022/10/16 04:55:42;;;;;;;2.25;1.85;;;16.70;99.90;;;;;;5069137;28;20074;-74
2022/10/16 04:58:07;;;;;;;2.58;2.00;;;16.70;99.90;;;;;;5071611;28;20043;-74
2022/10/16 05:00:34;;;;;;;3.08;2.05;;;16.70;99.90;;;;;;5072735;28;20017;-73
2022/10/16 05:03:00;;;;;;;3.50;1.92;;;16.60;99.90;;;;;;5069589;28;20028;-73
2022/10/16 05:05:27;;;;;;;2.92;2.15;;;16.60;99.90;;;;;;5071260;28;20029;-74
2022/10/16 05:07:53;;;;;;;2.58;2.05;;;16.60;99.90;;;;;;5070497;28;20422;-73
2022/10/16 05:10:18;;;;;;;2.90;2.30;;;16.60;99.90;;;;;;5072315;28;20035;-72
2022/10/16 05:12:44;;;;;;;3.08;2.05;;;16.60;99.90;;;;;;5070163;28;20072;-71
2022/10/16 05:15:10;;;;;;;2.70;2.28;;;16.50;99.90;;;;;;5071300;28;20028;-71
2022/10/16 05:17:36;;;;;;;3.97;2.60;;;16.50;99.90;;;;;;5074682;28;20031;-71
2022/10/16 05:20:03;;;;;;;2.95;2.25;;;16.50;99.90;;;;;;5093014;28;20039;-73
2022/10/16 05:22:28;;;;;;;5.72;2.10;;;16.50;99.90;;;;;;5072728;28;20042;-72
2022/10/16 05:24:54;;;;;;;2.63;2.05;;;16.40;99.90;;;;;;5072188;28;20115;-72
2022/10/16 05:27:19;;;;;;;2.90;2.15;;;16.40;99.90;;;;;;5072047;28;20534;-72
2022/10/16 05:29:46;;;;;;;3.65;2.35;;;16.40;99.90;;;;;;5070367;28;20047;-72
2022/10/16 05:32:16;;;;;;;3.97;2.53;;;16.40;99.90;;;;;;5072540;28;20041;-72
2022/10/16 05:34:42;;;;;;;4.07;2.42;;;16.40;99.90;;;;;;5071807;28;20040;-72
2022/10/16 05:37:08;;;;;;;2.60;2.25;;;16.30;99.90;;;;;;5071229;28;20115;-72
2022/10/16 05:39:34;;;;;;;3.33;2.53;;;16.30;99.90;;;;;;5067899;28;20028;-72
2022/10/16 05:42:01;;;;;;;3.85;2.63;;;16.30;99.90;;;;;;5062115;28;20013;-71
2022/10/16 05:44:26;;;;;;;2.80;2.17;;;16.30;99.90;;;;;;5070201;28;20028;-72
2022/10/16 05:46:52;;;;;;;4.10;2.30;;;16.30;99.90;;;;;;5071890;28;20413;-72
2022/10/16 05:49:18;;;;;;;2.60;2.33;;;16.30;99.90;;;;;;5070183;28;20059;-72
2022/10/16 05:51:43;;;;;;;2.92;2.50;;;16.30;99.90;;;;;;5072062;28;20074;-72
2022/10/16 05:54:09;;;;;;;3.28;2.38;;;16.30;99.90;;;;;;5079460;28;20043;-72
2022/10/16 05:56:34;;;;;;;3.40;2.20;;;16.30;99.90;;;;;;5075653;28;20109;-72
2022/10/16 05:59:00;;;;;;;3.55;2.33;;;16.30;99.90;;;;;;5086061;28;20032;-72
2022/10/16 06:01:25;;;;;;;3.28;2.70;;;16.30;99.90;;;;;;5075209;28;20090;-73
2022/10/16 06:03:52;;;;;;;3.58;2.33;;;16.40;99.90;;;;;;5084471;28;20487;-72
2022/10/16 06:06:21;;;;;;;2.72;2.35;;;16.40;99.90;;;;;;5080866;28;20040;-72
2022/10/16 06:08:48;;;;;;;3.42;2.20;;;16.40;99.90;;;;;;5070763;28;20012;-72
2022/10/16 06:11:17;;;;;;;3.88;2.05;;;16.30;99.90;;;;;;5074819;28;20028;-72
2022/10/16 06:13:45;;;;;;;3.65;2.80;;;16.30;99.90;;;;;;5071235;28;20384;-72
2022/10/16 06:16:12;;;;;;;3.60;2.60;;;16.40;99.90;;;;;;5070956;28;20050;-72
2022/10/16 06:18:38;;;;;;;3.75;2.08;;;16.40;99.90;;;;;;5071181;28;20108;-72
2022/10/16 06:21:09;;;;;;;3.08;2.25;;;16.40;99.90;;;;;;5071098;28;20054;-72
2022/10/16 06:23:35;;;;;;;3.55;2.50;;;16.40;99.90;;;;;;5071410;28;20043;-73
2022/10/16 06:26:12;;;;;;;3.17;2.45;;;16.40;99.90;;;;;;5071001;28;20496;-71
2022/10/16 06:28:38;;;;;;;3.03;2.28;;;16.50;99.90;;;;;;5070564;28;20372;-72
2022/10/16 06:31:06;;;;;;;3.35;2.50;;;16.50;99.90;;;;;;5072035;28;20040;-72
2022/10/16 06:33:32;;;;;;;3.38;2.25;;;16.50;99.90;;;;;;5079905;28;20048;-72
2022/10/16 06:36:09;;;;;;;4.25;2.28;;;16.60;99.90;;;;;;5051600;28;20090;-72
2022/10/16 06:38:35;;;;;;;3.58;2.50;;;16.50;99.90;;;;;;5073292;28;20028;-72
2022/10/16 06:41:01;;;;;;;2.55;2.20;;;16.60;99.90;;;;;;5091754;28;20028;-72
2022/10/16 06:43:31;;;;;;;3.90;2.00;;;16.60;99.90;;;;;;5082595;28;20545;-74
2022/10/16 06:45:58;;;;;;;4.40;1.90;;;16.60;99.90;;;;;;5085216;28;20033;-73
2022/10/16 06:48:25;;;;;;;3.58;2.38;;;16.70;99.90;;;;;;5073449;28;20020;-73
2022/10/16 06:51:02;;;;;;;2.55;2.00;;;16.70;99.90;;;;;;5070161;28;20024;-74
2022/10/16 06:53:30;;;;;;;3.40;2.30;;;16.70;99.90;;;;;;5078262;28;20090;-74
2022/10/16 06:55:57;;;;;;;13.77;2.97;;;16.70;99.90;;;;;;5076511;28;20036;-74
2022/10/16 06:58:23;;;;;;;3.03;2.20;;;16.80;99.90;;;;;;5068547;28;20052;-74
2022/10/16 07:00:49;;;;;;;3.38;2.80;;;16.80;99.90;;;;;;5067447;28;20036;-74
2022/10/16 07:03:14;;;;;;;2.63;2.30;;;16.80;99.90;;;;;;5070040;28;20033;-71
2022/10/16 07:05:41;;;;;;;2.90;2.22;;;16.80;99.90;;;;;;5066153;28;20796;-75
2022/10/16 07:08:08;;;;;;;3.30;2.17;;;16.90;99.90;;;;;;5072554;28;20032;-74
2022/10/16 07:10:35;;;;;;;3.45;2.20;;;17.00;99.90;;;;;;5070854;28;20028;-74
2022/10/16 07:13:01;;;;;;;2.63;1.75;;;17.00;99.90;;;;;;5074328;28;20372;-69
2022/10/16 07:15:27;;;;;;;3.47;2.10;;;17.20;99.90;;;;;;5069924;28;20120;-70
2022/10/16 07:17:52;;;;;;;3.00;2.30;;;17.20;99.90;;;;;;5077278;28;20479;-70
2022/10/16 07:20:19;;;;;;;3.50;2.38;;;17.30;99.90;;;;;;5079621;28;20023;-66
2022/10/16 07:22:44;;;;;;;3.78;2.20;;;17.40;99.90;;;;;;5084222;28;20059;-72
2022/10/16 07:25:11;;;;;;;3.15;2.25;;;17.50;99.90;;;;;;5085146;28;20060;-75
2022/10/16 07:27:37;;;;;;;2.78;2.03;;;17.60;99.90;;;;;;5070709;28;20048;-74
2022/10/16 07:30:05;;;;;;;4.93;2.28;;;17.70;99.90;;;;;;5073246;28;20127;-71
2022/10/16 07:32:31;;;;;;;3.58;1.80;;;17.70;99.90;;;;;;5074661;28;20140;-71
2022/10/16 07:34:57;;;;;;;4.00;2.15;;;17.80;99.90;;;;;;5075012;28;20036;-71
2022/10/16 07:37:22;;;;;;;2.53;1.77;;;17.90;99.90;;;;;;5074663;28;20033;-70
2022/10/16 07:39:48;;;;;;;2.63;1.85;;;18.00;99.90;;;;;;5077421;28;20031;-69
2022/10/16 07:42:14;;;;;;;2.17;1.60;;;18.00;99.90;;;;;;5073083;28;20947;-70
2022/10/16 07:44:40;;;;;;;2.53;1.98;;;18.10;99.90;;;;;;5078665;28;20029;-70
2022/10/16 07:47:07;;;;;;;3.92;1.95;;;18.10;99.90;;;;;;5073565;28;20063;-69
2022/10/16 07:49:32;;;;;;;3.13;1.80;;;18.20;99.90;;;;;;5073624;28;20031;-71
2022/10/16 07:51:58;;;;;;;2.63;1.70;;;18.20;99.90;;;;;;5084863;28;20028;-69
2022/10/16 07:54:23;;;;;;;5.78;2.42;;;18.30;99.90;;;;;;5080720;28;20693;-68
2022/10/16 07:56:49;;;;;;;2.25;1.50;;;18.30;99.90;;;;;;5068630;28;20064;-69
2022/10/16 07:59:14;;;;;;;2.65;2.00;;;18.30;99.90;;;;;;5073389;28;20024;-70
2022/10/16 08:01:41;;;;;;;2.20;1.67;;;18.40;99.90;;;;;;5073489;28;20021;-70
2022/10/16 08:04:09;;;;;;;1.77;1.45;;;18.40;99.90;;;;;;5073282;28;20035;-69
2022/10/16 08:06:36;;;;;;;2.50;1.58;;;18.40;99.90;;;;;;5073474;28;20154;-69
2022/10/16 08:09:02;;;;;;;4.57;2.38;;;18.40;99.90;;;;;;5068389;28;20127;-69
2022/10/16 08:11:28;;;;;;;3.08;1.90;;;18.50;99.90;;;;;;5073057;28;20548;-69
2022/10/16 08:13:55;;;;;;;3.20;1.80;;;18.50;99.90;;;;;;5072529;28;20024;-71
2022/10/16 08:16:21;;;;;;;3.13;1.90;;;18.50;99.90;;;;;;5073629;28;20521;-69
2022/10/16 08:18:47;;;;;;;3.63;1.92;;;18.60;99.90;;;;;;5071202;28;20036;-69
2022/10/16 08:21:19;;;;;;;3.78;1.95;;;18.70;99.90;;;;;;5073876;28;20020;-71
2022/10/16 08:23:44;;;;;;;2.33;1.60;;;18.70;99.90;;;;;;5078616;28;20093;-71
2022/10/16 08:26:11;;;;;;;2.47;1.80;;;18.70;99.90;;;;;;5084890;28;22092;-70
2022/10/16 08:28:37;;;;;;;2.42;1.58;;;18.80;99.90;;;;;;5067207;28;20086;-71
2022/10/16 08:31:09;;;;;;;4.30;1.88;;;18.80;99.90;;;;;;5073524;28;20063;-71
2022/10/16 08:33:35;;;;;;;3.42;1.73;;;18.90;99.90;;;;;;5077181;28;20043;-71
2022/10/16 08:36:01;;;;;;;3.83;1.85;;;18.90;99.90;;;;;;5080474;28;20490;-71
2022/10/16 08:38:27;;;;;;;2.92;2.13;;;18.90;99.90;;;;;;5088819;28;20083;-71
2022/10/16 08:41:00;;;;;;;2.88;1.50;;;18.90;99.90;;;;;;5079374;28;20476;-70
2022/10/16 08:44:16;;;;;;;3.25;1.70;;;18.90;99.90;;;;;;5091283;28;20089;-70
2022/10/16 08:47:09;;;;;;;2.92;1.73;;;19.00;99.90;;;;;;5032827;28;20387;-71
2022/10/16 08:49:37;;;;;;;3.45;1.45;;;19.00;99.90;;;;;;5080992;28;20039;-72
2022/10/16 08:52:03;;;;;;;11.77;2.05;;;19.00;99.90;;;;;;5078870;28;20024;-72
2022/10/16 08:54:36;;;;;;;3.17;1.80;;;19.10;99.90;;;;;;5074006;28;20390;-71
2022/10/16 08:57:18;;;;;;;6.60;2.33;;;19.10;99.90;;;;;;5071622;28;20047;-72
2022/10/16 08:59:45;;;;;;;5.40;1.70;;;19.10;99.90;;;;;;5077181;28;20040;-70
2022/10/16 09:02:26;;;;;;;3.47;1.67;;;19.10;99.90;;;;;;5073338;28;20021;-71
2022/10/16 09:05:18;;;;;;;4.03;1.50;;;19.10;99.90;;;;;;5077275;28;20032;-71
2022/10/16 09:08:00;;;;;;;2.80;1.50;;;19.10;99.90;;;;;;5034709;28;20446;-71
2022/10/16 09:10:52;;;;;;;2.30;1.50;;;19.10;99.90;;;;;;5082713;28;20035;-71
2022/10/16 09:13:49;;;;;;;2.38;1.60;;;19.10;99.90;;;;;;5078362;28;20426;-71
2022/10/16 09:16:29;;;;;;;2.53;1.98;;;19.20;99.90;;;;;;5038947;28;20037;-71
2022/10/16 09:19:07;;;;;;;3.65;1.77;;;19.20;99.90;;;;;;5063796;28;20032;-68
2022/10/16 09:21:40;;;;;;;4.43;1.80;;;19.30;99.90;;;;;;5075641;28;20024;-71
2022/10/16 09:24:16;;;;;;;3.20;1.95;;;19.30;99.90;;;;;;5076783;28;20028;-71
2022/10/16 09:26:42;;;;;;;4.10;1.98;;;19.30;99.90;;;;;;5071277;28;20505;-69
2022/10/16 09:29:16;;;;;;;3.03;1.77;;;19.40;99.90;;;;;;5078188;28;20032;-72
2022/10/16 09:31:42;;;;;;;;;;;19.40;99.90;;;;;;5062392;28;20095;-72
2022/10/16 09:34:30;;;;;;;2.83;1.60;;;19.40;99.90;;;;;;5067659;28;19920;-71
2022/10/16 09:36:58;;;;;;;8.13;2.17;;;19.40;99.90;;;;;;5071293;28;20039;-71
2022/10/16 09:39:24;;;;;;;3.97;1.63;;;19.40;99.90;;;;;;5081639;28;20036;-71
2022/10/16 09:41:51;;;;;;;1.75;1.40;;;19.40;99.90;;;;;;5070361;28;20016;-71
2022/10/16 09:44:31;;;;;;;2.85;1.48;;;19.40;99.90;;;;;;5071804;28;20044;-71
2022/10/16 09:47:05;;;;;;;2.20;1.50;;;19.40;99.90;;;;;;5070670;28;20032;-71
2022/10/16 09:49:31;;;;;;;2.03;1.42;;;19.40;99.90;;;;;;5068883;28;20608;-71
2022/10/16 09:52:12;;;;;;;3.65;1.40;;;19.40;99.90;;;;;;5071629;28;20086;-70
2022/10/16 09:54:52;;;;;;;2.60;1.58;;;19.40;99.90;;;;;;5070319;28;20028;-71
2022/10/16 09:57:19;;;;;;;2.22;1.55;;;19.40;99.90;;;;;;5071805;28;20028;-71
2022/10/16 09:59:56;;;;;;;1.48;1.30;;;19.40;99.90;;;;;;5071476;28;20547;-71
2022/10/16 10:02:33;;;;;;;6.20;1.48;;;19.40;99.90;;;;;;5072214;28;20040;-71
2022/10/16 10:04:59;;;;;;;3.40;1.58;;;19.50;99.90;;;;;;5071650;28;20032;-73
2022/10/16 10:07:33;;;;;;;3.40;1.50;;;19.50;99.90;;;;;;5071792;28;20501;-72
2022/10/16 10:10:00;;;;;;;3.63;1.60;;;19.50;99.90;;;;;;5071791;28;20021;-72
2022/10/16 10:12:37;;;;;;;3.22;1.77;;;19.50;99.90;;;;;;5070237;28;20085;-72
2022/10/16 10:15:07;;;;;;;2.05;1.65;;;19.50;99.90;;;;;;5071588;28;20043;-70
2022/10/16 10:17:32;;;;;;;3.25;1.50;;;19.50;99.90;;;;;;5068019;28;20086;-72
2022/10/16 10:20:23;;;;;;;3.33;2.13;;;19.60;99.90;;;;;;5071003;28;20105;-72
2022/10/16 10:22:49;;;;;;;7.32;2.30;;;19.70;99.90;;;;;;5050016;28;20043;-72
2022/10/16 10:25:52;;;;;;;3.88;2.10;;;19.80;99.90;;;;;;5071388;28;20021;-71
2022/10/16 10:28:54;;;;;;;3.15;1.75;;;19.80;99.90;;;;;;5071306;28;20063;-71
2022/10/16 10:31:35;;;;;;;2.90;1.50;;;19.80;99.90;;;;;;5070879;28;20033;-71
2022/10/16 10:34:26;;;;;;;3.53;2.20;;;19.90;99.90;;;;;;5070651;28;20044;-71
2022/10/16 10:37:13;;;;;;;4.07;1.80;;;19.90;99.90;;;;;;5077439;28;20490;-71
2022/10/16 10:40:08;;;;;;;4.35;2.30;;;20.00;99.90;;;;;;5071212;28;20064;-71
2022/10/16 10:42:38;;;;;;;2.90;1.63;;;20.00;99.90;;;;;;5078879;28;20046;-71
2022/10/16 10:45:20;;;;;;;2.80;1.60;;;20.10;99.90;;;;;;5076563;28;20090;-71
2022/10/16 10:48:11;;;;;;;3.45;1.58;;;20.10;99.70;;;;;;5084678;28;20107;-71
2022/10/16 10:50:44;;;;;;;2.10;1.40;;;20.30;99.70;;;;;;5072913;28;20060;-71
2022/10/16 10:53:29;;;;;;;1.80;1.38;;;20.30;99.40;;;;;;5078219;28;20783;-70
2022/10/16 10:56:16;;;;;;;3.50;1.50;;;20.40;99.30;;;;;;5086083;28;20142;-70
2022/10/16 10:58:45;;;;;;;2.40;1.40;;;20.40;99.20;;;;;;5080206;28;20062;-71
2022/10/16 11:01:24;;;;;;;2.95;1.52;;;20.50;99.10;;;;;;5077725;28;20032;-72
2022/10/16 11:04:07;;;;;;;2.13;1.30;;;20.50;98.90;;;;;;5066353;28;20047;-69
2022/10/16 11:06:45;;;;;;;3.17;1.40;;;20.60;98.80;;;;;;5068323;28;20062;-70
2022/10/16 11:09:23;;;;;;;3.00;1.33;;;20.60;98.40;;;;;;5082876;28;20066;-71
2022/10/16 11:12:06;;;;;;;2.10;1.40;;;20.70;98.50;;;;;;5080060;28;20066;-68
2022/10/16 11:14:32;;;;;;;3.05;1.60;;;20.70;98.30;;;;;;5073884;28;20028;-71
2022/10/16 11:17:05;;;;;;;4.63;1.80;;;20.80;98.10;;;;;;5084642;28;20431;-70
2022/10/16 11:19:47;;;;;;;3.65;1.65;;;20.90;97.90;;;;;;5076776;28;20029;-69
2022/10/16 11:22:35;;;;;;;14.45;7.63;;;20.90;97.70;;;;;;5079969;28;20036;-71
2022/10/16 11:25:14;;;;;;;9.43;3.42;;;21.00;97.70;;;;;;5064444;28;20040;-70
2022/10/16 11:27:48;;;;;;;5.28;2.30;;;21.00;97.30;;;;;;5078523;28;20135;-72
2022/10/16 11:30:41;;;;;;;4.25;1.60;;;21.10;97.10;;;;;;5067926;28;20156;-71
2022/10/16 11:33:24;;;;;;;2.25;1.33;;;21.00;97.10;;;;;;5069774;28;20135;-70
2022/10/16 11:36:19;;;;;;;4.55;1.90;;;21.00;96.90;;;;;;5074238;28;20035;-70
2022/10/16 11:39:18;;;;;;;2.67;1.57;;;21.00;96.90;;;;;;5074481;28;20098;-69
2022/10/16 11:41:59;;;;;;;1.25;1.13;;;20.90;96.60;;;;;;5061957;28;20079;-70
2022/10/16 11:44:53;;;;;;;2.97;1.30;;;20.90;96.50;;;;;;5072780;28;20028;-69
2022/10/16 11:47:41;;;;;;;1.85;1.20;;;20.90;96.40;;;;;;5073300;28;20029;-69
2022/10/16 11:50:17;;;;;;;2.85;1.25;;;20.80;96.40;;;;;;5074024;28;20487;-69
2022/10/16 11:52:51;;;;;;;1.88;1.20;;;20.80;96.10;;;;;;5070113;28;20112;-70
2022/10/16 11:55:19;;;;;;;;;;;20.80;96.10;;;;;;5071945;28;20025;-70
2022/10/16 11:57:57;;;;;;;1.88;1.20;;;20.70;96.50;;;;;;5072676;28;19999;-68
2022/10/16 12:00:43;;;;;;;2.45;1.42;;;20.60;96.10;;;;;;5073949;28;20092;-70
2022/10/16 12:03:28;;;;;;;3.65;1.73;;;20.60;95.80;;;;;;5071089;28;20041;-70
2022/10/16 12:06:23;;;;;;;1.50;1.00;;;20.50;95.70;;;;;;5074086;28;20491;-70
2022/10/16 12:08:51;;;;;;;1.88;1.42;;;20.50;95.70;;;;;;5077407;28;20075;-72
2022/10/16 12:11:26;;;;;;;4.63;1.15;;;20.40;95.50;;;;;;5086481;28;20032;-71
2022/10/16 12:14:03;;;;;;;2.63;1.30;;;20.30;95.30;;;;;;5071201;28;20082;-72
2022/10/16 12:16:29;;;;;;;1.73;1.20;;;20.40;95.10;;;;;;5072544;28;20025;-71
2022/10/16 12:19:12;;;;;;;3.05;1.10;;;20.30;95.10;;;;;;5073947;28;20056;-72
2022/10/16 12:21:39;;;;;;;1.45;1.08;;;20.30;95.00;;;;;;5058772;28;20070;-71
2022/10/16 12:24:05;;;;;;;1.77;1.13;;;20.30;94.90;;;;;;5076467;28;20033;-72
2022/10/16 12:26:45;;;;;;;2.20;1.20;;;20.30;94.90;;;;;;5070399;28;20053;-71
2022/10/16 12:29:34;;;;;;;3.30;1.40;;;20.40;94.80;;;;;;5070500;28;20028;-71
2022/10/16 12:32:01;;;;;;;1.05;0.95;;;20.40;94.70;;;;;;5072492;28;20012;-71
2022/10/16 12:34:29;;;;;;;2.15;1.20;;;20.40;94.70;;;;;;5060918;28;20063;-71
2022/10/16 12:37:06;;;;;;;1.75;1.10;;;20.40;94.50;;;;;;5071631;28;20059;-70
2022/10/16 12:39:32;;;;;;;2.20;0.98;;;20.40;94.50;;;;;;5073554;28;20068;-71
2022/10/16 12:42:05;;;;;;;1.85;1.10;;;20.40;94.50;;;;;;5071104;28;20117;-70
2022/10/16 12:44:35;;;;;;;2.67;1.38;;;20.40;94.40;;;;;;5082134;28;20028;-72
2022/10/16 12:47:02;;;;;;;2.40;1.00;;;20.40;94.30;;;;;;5071229;28;20032;-71
2022/10/16 12:49:28;;;;;;;4.25;1.30;;;20.50;94.30;;;;;;5072083;28;20029;-71
2022/10/16 12:51:55;;;;;;;3.13;1.20;;;20.50;94.30;;;;;;5071078;28;20035;-72
2022/10/16 12:54:35;;;;;;;1.73;1.27;;;20.50;94.20;;;;;;5078735;28;20077;-73
2022/10/16 12:57:06;;;;;;;1.95;0.88;;;20.60;94.00;;;;;;5070701;28;20127;-72
2022/10/16 13:00:00;;;;;;;4.72;1.85;;;20.70;93.80;;;;;;5072016;28;20040;-72
2022/10/16 13:02:43;;;;;;;1.63;1.40;;;20.70;93.80;;;;;;5061348;28;20103;-72
2022/10/16 13:05:30;;;;;;;3.15;1.88;;;20.70;93.60;;;;;;5077265;28;20032;-72
2022/10/16 13:08:25;;;;;;;1.80;1.20;;;20.80;93.50;;;;;;5079527;28;20560;-72
2022/10/16 13:11:15;;;;;;;1.63;1.27;;;20.80;93.30;;;;;;5082062;28;20036;-73